sensor_id;sensor_type;location;lat;lon;timestamp;temperature;humidity
43999;DHT22;51319;52.162;5.302;2023-07-13T00:01:55;18.00;81.70
43999;DHT22;51319;52.162;5.302;2023-07-13T00:04:23;18.00;81.90
43999;DHT22;51319;52.162;5.302;2023-07-13T00:06:55;18.00;82.10
43999;DHT22;51319;52.162;5.302;2023-07-13T00:09:22;18.10;82.10
43999;DHT22;51319;52.162;5.302;2023-07-13T00:11:55;18.00;82.20
43999;DHT22;51319;52.162;5.302;2023-07-13T00:14:24;18.00;82.40
43999;DHT22;51319;52.162;5.302;2023-07-13T00:16:51;17.90;82.50
43999;DHT22;51319;52.162;5.302;2023-07-13T00:19:18;17.90;82.70
43999;DHT22;51319;52.162;5.302;2023-07-13T00:21:45;17.90;82.90
43999;DHT22;51319;52.162;5.302;2023-07-13T00:24:15;17.90;83.20
43999;DHT22;51319;52.162;5.302;2023-07-13T00:26:43;17.90;83.30
43999;DHT22;51319;52.162;5.302;2023-07-13T00:29:13;17.90;83.40
43999;DHT22;51319;52.162;5.302;2023-07-13T00:31:40;17.90;83.50
43999;DHT22;51319;52.162;5.302;2023-07-13T00:34:08;17.90;83.40
43999;DHT22;51319;52.162;5.302;2023-07-13T00:36:35;17.80;83.60
43999;DHT22;51319;52.162;5.302;2023-07-13T00:39:03;17.80;83.60
43999;DHT22;51319;52.162;5.302;2023-07-13T00:41:31;17.80;83.80
43999;DHT22;51319;52.162;5.302;2023-07-13T00:43:58;17.80;83.90
43999;DHT22;51319;52.162;5.302;2023-07-13T00:46:28;17.80;83.80
43999;DHT22;51319;52.162;5.302;2023-07-13T00:48:58;17.80;83.70
43999;DHT22;51319;52.162;5.302;2023-07-13T00:51:34;17.70;83.80
43999;DHT22;51319;52.162;5.302;2023-07-13T00:54:06;17.60;84.00
43999;DHT22;51319;52.162;5.302;2023-07-13T00:56:33;17.60;84.10
43999;DHT22;51319;52.162;5.302;2023-07-13T00:59:02;17.50;84.20
43999;DHT22;51319;52.162;5.302;2023-07-13T01:01:30;17.40;84.40
43999;DHT22;51319;52.162;5.302;2023-07-13T01:03:57;17.40;84.60
43999;DHT22;51319;52.162;5.302;2023-07-13T01:06:24;17.30;84.80
43999;DHT22;51319;52.162;5.302;2023-07-13T01:08:51;17.30;85.00
43999;DHT22;51319;52.162;5.302;2023-07-13T01:11:20;17.20;85.20
43999;DHT22;51319;52.162;5.302;2023-07-13T01:13:49;17.20;85.40
43999;DHT22;51319;52.162;5.302;2023-07-13T01:16:25;17.10;85.50
43999;DHT22;51319;52.162;5.302;2023-07-13T01:18:54;17.10;85.80
43999;DHT22;51319;52.162;5.302;2023-07-13T01:21:25;17.10;85.80
43999;DHT22;51319;52.162;5.302;2023-07-13T01:23:53;17.00;86.10
43999;DHT22;51319;52.162;5.302;2023-07-13T01:26:20;17.00;86.40
43999;DHT22;51319;52.162;5.302;2023-07-13T01:28:47;17.00;86.50
43999;DHT22;51319;52.162;5.302;2023-07-13T01:31:14;17.00;86.70
43999;DHT22;51319;52.162;5.302;2023-07-13T01:33:41;17.00;87.00
43999;DHT22;51319;52.162;5.302;2023-07-13T01:36:09;16.90;87.00
43999;DHT22;51319;52.162;5.302;2023-07-13T01:38:39;16.90;87.30
43999;DHT22;51319;52.162;5.302;2023-07-13T01:41:08;16.90;87.50
43999;DHT22;51319;52.162;5.302;2023-07-13T01:43:35;16.80;87.60
43999;DHT22;51319;52.162;5.302;2023-07-13T01:46:02;16.80;87.90
43999;DHT22;51319;52.162;5.302;2023-07-13T01:48:47;16.70;88.10
43999;DHT22;51319;52.162;5.302;2023-07-13T01:51:15;16.70;88.30
43999;DHT22;51319;52.162;5.302;2023-07-13T01:53:42;16.70;89.30
43999;DHT22;51319;52.162;5.302;2023-07-13T01:56:10;16.60;89.00
43999;DHT22;51319;52.162;5.302;2023-07-13T01:58:37;16.60;89.30
43999;DHT22;51319;52.162;5.302;2023-07-13T02:01:04;16.60;89.70
43999;DHT22;51319;52.162;5.302;2023-07-13T02:03:37;16.60;89.90
43999;DHT22;51319;52.162;5.302;2023-07-13T02:06:04;16.50;90.10
43999;DHT22;51319;52.162;5.302;2023-07-13T02:08:32;16.50;90.30
43999;DHT22;51319;52.162;5.302;2023-07-13T02:10:59;16.50;90.40
43999;DHT22;51319;52.162;5.302;2023-07-13T02:13:27;16.50;90.60
43999;DHT22;51319;52.162;5.302;2023-07-13T02:15:54;16.40;90.70
43999;DHT22;51319;52.162;5.302;2023-07-13T02:18:22;16.40;90.90
43999;DHT22;51319;52.162;5.302;2023-07-13T02:20:50;16.40;91.10
43999;DHT22;51319;52.162;5.302;2023-07-13T02:23:17;16.40;91.20
43999;DHT22;51319;52.162;5.302;2023-07-13T02:25:44;16.30;91.40
43999;DHT22;51319;52.162;5.302;2023-07-13T02:28:11;16.30;91.60
43999;DHT22;51319;52.162;5.302;2023-07-13T02:30:38;16.30;91.70
43999;DHT22;51319;52.162;5.302;2023-07-13T02:33:06;16.30;91.90
43999;DHT22;51319;52.162;5.302;2023-07-13T02:35:33;16.30;92.00
43999;DHT22;51319;52.162;5.302;2023-07-13T02:38:00;16.30;92.20
43999;DHT22;51319;52.162;5.302;2023-07-13T02:40:27;16.30;92.40
43999;DHT22;51319;52.162;5.302;2023-07-13T02:42:54;16.20;92.50
43999;DHT22;51319;52.162;5.302;2023-07-13T02:45:21;16.20;92.60
43999;DHT22;51319;52.162;5.302;2023-07-13T02:47:48;16.20;92.80
43999;DHT22;51319;52.162;5.302;2023-07-13T02:50:15;16.20;93.00
43999;DHT22;51319;52.162;5.302;2023-07-13T02:52:43;16.10;93.20
43999;DHT22;51319;52.162;5.302;2023-07-13T02:55:10;16.10;93.40
43999;DHT22;51319;52.162;5.302;2023-07-13T02:57:38;16.10;93.70
43999;DHT22;51319;52.162;5.302;2023-07-13T03:00:05;16.10;93.90
43999;DHT22;51319;52.162;5.302;2023-07-13T03:02:33;16.10;94.10
43999;DHT22;51319;52.162;5.302;2023-07-13T03:05:00;16.00;94.40
43999;DHT22;51319;52.162;5.302;2023-07-13T03:07:30;16.00;94.60
43999;DHT22;51319;52.162;5.302;2023-07-13T03:09:58;16.00;94.90
43999;DHT22;51319;52.162;5.302;2023-07-13T03:12:26;16.00;95.20
43999;DHT22;51319;52.162;5.302;2023-07-13T03:14:53;16.00;95.40
43999;DHT22;51319;52.162;5.302;2023-07-13T03:17:21;15.90;95.60
43999;DHT22;51319;52.162;5.302;2023-07-13T03:19:48;15.90;95.90
43999;DHT22;51319;52.162;5.302;2023-07-13T03:22:17;15.90;96.10
43999;DHT22;51319;52.162;5.302;2023-07-13T03:24:46;15.90;96.40
43999;DHT22;51319;52.162;5.302;2023-07-13T03:27:16;15.90;96.60
43999;DHT22;51319;52.162;5.302;2023-07-13T03:29:44;15.90;96.80
43999;DHT22;51319;52.162;5.302;2023-07-13T03:32:11;15.90;97.00
43999;DHT22;51319;52.162;5.302;2023-07-13T03:34:38;15.80;97.20
43999;DHT22;51319;52.162;5.302;2023-07-13T03:37:05;15.80;97.30
43999;DHT22;51319;52.162;5.302;2023-07-13T03:39:32;15.80;97.50
43999;DHT22;51319;52.162;5.302;2023-07-13T03:42:00;15.80;97.60
43999;DHT22;51319;52.162;5.302;2023-07-13T03:44:27;15.80;97.80
43999;DHT22;51319;52.162;5.302;2023-07-13T03:46:57;15.90;97.90
43999;DHT22;51319;52.162;5.302;2023-07-13T03:49:24;15.90;98.00
43999;DHT22;51319;52.162;5.302;2023-07-13T03:51:52;15.90;98.00
43999;DHT22;51319;52.162;5.302;2023-07-13T03:54:20;16.00;98.10
43999;DHT22;51319;52.162;5.302;2023-07-13T03:56:47;16.00;98.10
43999;DHT22;51319;52.162;5.302;2023-07-13T03:59:14;16.10;98.10
43999;DHT22;51319;52.162;5.302;2023-07-13T04:01:41;16.10;98.10
43999;DHT22;51319;52.162;5.302;2023-07-13T04:04:08;16.10;97.90
43999;DHT22;51319;52.162;5.302;2023-07-13T04:06:35;16.10;98.10
43999;DHT22;51319;52.162;5.302;2023-07-13T04:09:03;16.10;97.80
43999;DHT22;51319;52.162;5.302;2023-07-13T04:11:33;16.10;97.80
43999;DHT22;51319;52.162;5.302;2023-07-13T04:14:00;16.10;97.80
43999;DHT22;51319;52.162;5.302;2023-07-13T04:16:28;16.00;97.80
43999;DHT22;51319;52.162;5.302;2023-07-13T04:18:55;16.00;97.90
43999;DHT22;51319;52.162;5.302;2023-07-13T04:21:29;16.00;98.00
43999;DHT22;51319;52.162;5.302;2023-07-13T04:23:56;16.00;98.10
43999;DHT22;51319;52.162;5.302;2023-07-13T04:26:25;16.10;98.20
43999;DHT22;51319;52.162;5.302;2023-07-13T04:28:52;16.10;98.20
43999;DHT22;51319;52.162;5.302;2023-07-13T04:31:20;16.20;98.10
43999;DHT22;51319;52.162;5.302;2023-07-13T04:33:48;16.30;97.90
43999;DHT22;51319;52.162;5.302;2023-07-13T04:36:16;16.40;97.80
43999;DHT22;51319;52.162;5.302;2023-07-13T04:38:43;16.40;97.70
43999;DHT22;51319;52.162;5.302;2023-07-13T04:41:11;16.50;97.50
43999;DHT22;51319;52.162;5.302;2023-07-13T04:43:39;16.40;97.30
43999;DHT22;51319;52.162;5.302;2023-07-13T04:46:10;16.40;97.50
43999;DHT22;51319;52.162;5.302;2023-07-13T04:48:38;16.50;97.50
43999;DHT22;51319;52.162;5.302;2023-07-13T04:51:05;16.50;97.50
43999;DHT22;51319;52.162;5.302;2023-07-13T04:53:32;16.60;97.60
43999;DHT22;51319;52.162;5.302;2023-07-13T04:56:02;16.80;97.50
43999;DHT22;51319;52.162;5.302;2023-07-13T04:58:29;16.90;97.30
43999;DHT22;51319;52.162;5.302;2023-07-13T05:01:03;17.00;97.10
43999;DHT22;51319;52.162;5.302;2023-07-13T05:03:30;17.00;96.90
43999;DHT22;51319;52.162;5.302;2023-07-13T05:06:00;17.00;96.80
43999;DHT22;51319;52.162;5.302;2023-07-13T05:08:27;17.10;97.00
43999;DHT22;51319;52.162;5.302;2023-07-13T05:10:54;17.30;96.80
43999;DHT22;51319;52.162;5.302;2023-07-13T05:13:21;17.30;96.70
43999;DHT22;51319;52.162;5.302;2023-07-13T05:16:00;17.40;96.50
43999;DHT22;51319;52.162;5.302;2023-07-13T05:18:29;17.60;96.40
43999;DHT22;51319;52.162;5.302;2023-07-13T05:21:07;17.70;96.20
43999;DHT22;51319;52.162;5.302;2023-07-13T05:23:36;17.80;96.10
43999;DHT22;51319;52.162;5.302;2023-07-13T05:26:03;17.90;95.90
43999;DHT22;51319;52.162;5.302;2023-07-13T05:28:35;17.90;95.60
43999;DHT22;51319;52.162;5.302;2023-07-13T05:31:03;18.00;95.30
43999;DHT22;51319;52.162;5.302;2023-07-13T05:33:31;18.00;95.10
43999;DHT22;51319;52.162;5.302;2023-07-13T05:35:58;18.10;95.10
43999;DHT22;51319;52.162;5.302;2023-07-13T05:38:28;18.20;95.00
43999;DHT22;51319;52.162;5.302;2023-07-13T05:40:56;18.40;94.90
43999;DHT22;51319;52.162;5.302;2023-07-13T05:43:23;18.50;94.50
43999;DHT22;51319;52.162;5.302;2023-07-13T05:45:55;18.60;94.40
43999;DHT22;51319;52.162;5.302;2023-07-13T05:48:23;18.60;94.20
43999;DHT22;51319;52.162;5.302;2023-07-13T05:50:50;18.70;93.90
43999;DHT22;51319;52.162;5.302;2023-07-13T05:53:17;18.80;93.90
43999;DHT22;51319;52.162;5.302;2023-07-13T05:55:48;18.90;93.70
43999;DHT22;51319;52.162;5.302;2023-07-13T05:58:17;19.10;93.40
43999;DHT22;51319;52.162;5.302;2023-07-13T06:00:45;19.30;93.30
43999;DHT22;51319;52.162;5.302;2023-07-13T06:03:13;19.50;92.80
43999;DHT22;51319;52.162;5.302;2023-07-13T06:05:40;19.60;92.40
43999;DHT22;51319;52.162;5.302;2023-07-13T06:08:07;19.70;91.80
43999;DHT22;51319;52.162;5.302;2023-07-13T06:10:35;19.60;91.50
43999;DHT22;51319;52.162;5.302;2023-07-13T06:13:02;19.80;91.50
43999;DHT22;51319;52.162;5.302;2023-07-13T06:15:29;19.70;91.30
43999;DHT22;51319;52.162;5.302;2023-07-13T06:17:56;19.70;91.20
43999;DHT22;51319;52.162;5.302;2023-07-13T06:20:23;19.60;91.40
43999;DHT22;51319;52.162;5.302;2023-07-13T06:22:50;19.60;91.60
43999;DHT22;51319;52.162;5.302;2023-07-13T06:25:17;19.60;91.50
43999;DHT22;51319;52.162;5.302;2023-07-13T06:27:44;20.00;91.50
43999;DHT22;51319;52.162;5.302;2023-07-13T06:30:11;20.30;90.80
43999;DHT22;51319;52.162;5.302;2023-07-13T06:32:38;20.70;90.20
43999;DHT22;51319;52.162;5.302;2023-07-13T06:35:07;21.30;88.60
43999;DHT22;51319;52.162;5.302;2023-07-13T06:37:34;21.50;85.90
43999;DHT22;51319;52.162;5.302;2023-07-13T06:40:01;21.50;85.90
43999;DHT22;51319;52.162;5.302;2023-07-13T06:42:28;21.70;83.80
43999;DHT22;51319;52.162;5.302;2023-07-13T06:44:55;21.70;83.60
43999;DHT22;51319;52.162;5.302;2023-07-13T06:47:22;22.40;82.60
43999;DHT22;51319;52.162;5.302;2023-07-13T06:49:49;22.70;80.80
43999;DHT22;51319;52.162;5.302;2023-07-13T06:52:16;22.80;79.50
43999;DHT22;51319;52.162;5.302;2023-07-13T06:54:43;22.90;78.90
43999;DHT22;51319;52.162;5.302;2023-07-13T06:57:10;23.20;77.60
43999;DHT22;51319;52.162;5.302;2023-07-13T06:59:37;23.60;75.90
43999;DHT22;51319;52.162;5.302;2023-07-13T07:02:04;23.40;74.90
43999;DHT22;51319;52.162;5.302;2023-07-13T07:04:31;23.00;75.00
43999;DHT22;51319;52.162;5.302;2023-07-13T07:06:59;22.60;75.70
43999;DHT22;51319;52.162;5.302;2023-07-13T07:09:26;22.30;77.30
43999;DHT22;51319;52.162;5.302;2023-07-13T07:11:53;22.00;78.00
43999;DHT22;51319;52.162;5.302;2023-07-13T07:14:30;21.90;78.90
43999;DHT22;51319;52.162;5.302;2023-07-13T07:16:57;21.70;79.10
43999;DHT22;51319;52.162;5.302;2023-07-13T07:19:27;21.50;80.20
43999;DHT22;51319;52.162;5.302;2023-07-13T07:21:54;21.20;81.30
43999;DHT22;51319;52.162;5.302;2023-07-13T07:24:20;21.00;82.60
43999;DHT22;51319;52.162;5.302;2023-07-13T07:26:47;20.80;83.50
43999;DHT22;51319;52.162;5.302;2023-07-13T07:29:17;20.60;84.70
43999;DHT22;51319;52.162;5.302;2023-07-13T07:31:47;20.40;86.10
43999;DHT22;51319;52.162;5.302;2023-07-13T07:34:29;20.30;87.50
43999;DHT22;51319;52.162;5.302;2023-07-13T07:37:00;20.20;88.40
43999;DHT22;51319;52.162;5.302;2023-07-13T07:39:30;20.20;88.90
43999;DHT22;51319;52.162;5.302;2023-07-13T07:41:58;20.10;89.70
43999;DHT22;51319;52.162;5.302;2023-07-13T07:44:24;20.20;90.40
43999;DHT22;51319;52.162;5.302;2023-07-13T07:46:53;20.30;90.60
43999;DHT22;51319;52.162;5.302;2023-07-13T07:49:21;20.50;90.60
43999;DHT22;51319;52.162;5.302;2023-07-13T07:51:48;20.50;90.30
43999;DHT22;51319;52.162;5.302;2023-07-13T07:54:15;20.70;90.40
43999;DHT22;51319;52.162;5.302;2023-07-13T07:57:02;22.30;89.70
43999;DHT22;51319;52.162;5.302;2023-07-13T07:59:32;23.00;84.70
43999;DHT22;51319;52.162;5.302;2023-07-13T08:02:19;24.40;80.60
43999;DHT22;51319;52.162;5.302;2023-07-13T08:04:48;25.60;77.00
43999;DHT22;51319;52.162;5.302;2023-07-13T08:07:19;26.10;72.20
43999;DHT22;51319;52.162;5.302;2023-07-13T08:09:46;26.20;72.20
43999;DHT22;51319;52.162;5.302;2023-07-13T08:12:13;27.10;69.30
43999;DHT22;51319;52.162;5.302;2023-07-13T08:14:43;27.70;65.60
43999;DHT22;51319;52.162;5.302;2023-07-13T08:17:20;28.20;63.50
43999;DHT22;51319;52.162;5.302;2023-07-13T08:19:47;28.90;61.00
43999;DHT22;51319;52.162;5.302;2023-07-13T08:22:14;29.30;59.80
43999;DHT22;51319;52.162;5.302;2023-07-13T08:24:42;28.90;58.70
43999;DHT22;51319;52.162;5.302;2023-07-13T08:27:12;27.80;59.70
43999;DHT22;51319;52.162;5.302;2023-07-13T08:29:39;26.80;60.60
43999;DHT22;51319;52.162;5.302;2023-07-13T08:32:12;26.20;62.70
43999;DHT22;51319;52.162;5.302;2023-07-13T08:34:39;25.80;63.30
43999;DHT22;51319;52.162;5.302;2023-07-13T08:37:07;25.50;64.50
43999;DHT22;51319;52.162;5.302;2023-07-13T08:39:34;25.30;65.10
43999;DHT22;51319;52.162;5.302;2023-07-13T08:42:30;24.80;65.20
43999;DHT22;51319;52.162;5.302;2023-07-13T08:45:13;24.30;67.00
43999;DHT22;51319;52.162;5.302;2023-07-13T08:47:53;23.80;67.90
43999;DHT22;51319;52.162;5.302;2023-07-13T08:50:25;23.30;68.30
43999;DHT22;51319;52.162;5.302;2023-07-13T08:52:55;22.70;68.80
43999;DHT22;51319;52.162;5.302;2023-07-13T08:55:26;22.00;70.40
43999;DHT22;51319;52.162;5.302;2023-07-13T08:58:15;21.40;72.80
43999;DHT22;51319;52.162;5.302;2023-07-13T09:00:58;21.10;75.50
43999;DHT22;51319;52.162;5.302;2023-07-13T09:04:02;20.80;76.50
43999;DHT22;51319;52.162;5.302;2023-07-13T09:06:40;20.70;78.00
43999;DHT22;51319;52.162;5.302;2023-07-13T09:14:39;20.50;80.80
43999;DHT22;51319;52.162;5.302;2023-07-13T09:17:22;20.80;81.50
43999;DHT22;51319;52.162;5.302;2023-07-13T09:22:34;22.70;78.70
43999;DHT22;51319;52.162;5.302;2023-07-13T09:27:42;22.20;76.90
43999;DHT22;51319;52.162;5.302;2023-07-13T09:32:47;24.10;76.10
43999;DHT22;51319;52.162;5.302;2023-07-13T09:35:19;25.00;72.80
43999;DHT22;51319;52.162;5.302;2023-07-13T09:37:47;24.50;71.50
43999;DHT22;51319;52.162;5.302;2023-07-13T09:40:24;23.90;72.40
43999;DHT22;51319;52.162;5.302;2023-07-13T09:42:53;23.10;74.30
43999;DHT22;51319;52.162;5.302;2023-07-13T09:45:29;22.60;76.30
43999;DHT22;51319;52.162;5.302;2023-07-13T09:48:04;21.90;78.30
43999;DHT22;51319;52.162;5.302;2023-07-13T09:50:32;21.20;79.60
43999;DHT22;51319;52.162;5.302;2023-07-13T09:53:01;20.60;81.20
43999;DHT22;51319;52.162;5.302;2023-07-13T09:55:37;20.30;82.20
43999;DHT22;51319;52.162;5.302;2023-07-13T09:58:19;20.40;83.70
43999;DHT22;51319;52.162;5.302;2023-07-13T10:01:01;21.60;83.90
43999;DHT22;51319;52.162;5.302;2023-07-13T10:03:36;24.20;78.60
43999;DHT22;51319;52.162;5.302;2023-07-13T10:06:16;26.20;72.70
43999;DHT22;51319;52.162;5.302;2023-07-13T10:08:49;27.60;66.70
43999;DHT22;51319;52.162;5.302;2023-07-13T10:11:21;29.10;62.90
43999;DHT22;51319;52.162;5.302;2023-07-13T10:13:54;29.10;61.10
43999;DHT22;51319;52.162;5.302;2023-07-13T10:16:25;28.20;60.30
43999;DHT22;51319;52.162;5.302;2023-07-13T10:18:58;27.40;62.40
43999;DHT22;51319;52.162;5.302;2023-07-13T10:21:32;27.40;64.50
43999;DHT22;51319;52.162;5.302;2023-07-13T10:24:17;28.80;62.80
43999;DHT22;51319;52.162;5.302;2023-07-13T10:29:27;29.80;58.90
43999;DHT22;51319;52.162;5.302;2023-07-13T10:31:56;29.30;60.20
43999;DHT22;51319;52.162;5.302;2023-07-13T10:34:24;29.00;59.80
43999;DHT22;51319;52.162;5.302;2023-07-13T10:36:52;28.10;60.30
43999;DHT22;51319;52.162;5.302;2023-07-13T10:39:21;27.10;61.10
43999;DHT22;51319;52.162;5.302;2023-07-13T10:41:57;26.60;62.50
43999;DHT22;51319;52.162;5.302;2023-07-13T10:44:30;27.10;62.10
43999;DHT22;51319;52.162;5.302;2023-07-13T10:47:03;26.50;62.00
43999;DHT22;51319;52.162;5.302;2023-07-13T10:49:34;26.90;64.90
43999;DHT22;51319;52.162;5.302;2023-07-13T10:52:02;28.70;63.40
43999;DHT22;51319;52.162;5.302;2023-07-13T10:54:30;30.00;60.40
43999;DHT22;51319;52.162;5.302;2023-07-13T10:57:21;30.40;57.50
43999;DHT22;51319;52.162;5.302;2023-07-13T11:00:15;29.40;58.20
43999;DHT22;51319;52.162;5.302;2023-07-13T11:02:43;28.30;61.30
43999;DHT22;51319;52.162;5.302;2023-07-13T11:05:29;27.90;62.80
43999;DHT22;51319;52.162;5.302;2023-07-13T11:08:15;27.00;63.70
43999;DHT22;51319;52.162;5.302;2023-07-13T11:13:37;29.10;63.20
43999;DHT22;51319;52.162;5.302;2023-07-13T11:18:52;31.20;57.50
43999;DHT22;51319;52.162;5.302;2023-07-13T11:21:22;30.90;56.10
43999;DHT22;51319;52.162;5.302;2023-07-13T11:29:38;29.20;56.90
43999;DHT22;51319;52.162;5.302;2023-07-13T11:32:24;27.90;59.50
43999;DHT22;51319;52.162;5.302;2023-07-13T11:34:54;27.00;61.30
43999;DHT22;51319;52.162;5.302;2023-07-13T11:37:22;27.20;62.10
43999;DHT22;51319;52.162;5.302;2023-07-13T11:39:51;28.50;61.70
43999;DHT22;51319;52.162;5.302;2023-07-13T11:42:21;29.90;59.00
43999;DHT22;51319;52.162;5.302;2023-07-13T11:44:50;29.80;56.90
43999;DHT22;51319;52.162;5.302;2023-07-13T11:47:34;29.90;55.80
43999;DHT22;51319;52.162;5.302;2023-07-13T11:50:19;28.90;55.40
43999;DHT22;51319;52.162;5.302;2023-07-13T11:52:46;27.80;57.20
43999;DHT22;51319;52.162;5.302;2023-07-13T11:55:18;27.00;59.90
43999;DHT22;51319;52.162;5.302;2023-07-13T11:57:50;26.30;60.60
43999;DHT22;51319;52.162;5.302;2023-07-13T12:00:21;25.80;62.40
43999;DHT22;51319;52.162;5.302;2023-07-13T12:02:50;25.50;64.10
43999;DHT22;51319;52.162;5.302;2023-07-13T12:05:19;25.40;66.30
43999;DHT22;51319;52.162;5.302;2023-07-13T12:07:50;25.80;65.90
43999;DHT22;51319;52.162;5.302;2023-07-13T12:10:21;26.00;65.10
43999;DHT22;51319;52.162;5.302;2023-07-13T12:12:53;25.80;64.30
43999;DHT22;51319;52.162;5.302;2023-07-13T12:15:22;25.60;63.70
43999;DHT22;51319;52.162;5.302;2023-07-13T12:17:49;25.40;64.50
43999;DHT22;51319;52.162;5.302;2023-07-13T12:20:25;25.20;64.70
43999;DHT22;51319;52.162;5.302;2023-07-13T12:22:53;25.90;63.50
43999;DHT22;51319;52.162;5.302;2023-07-13T12:25:22;26.90;60.70
43999;DHT22;51319;52.162;5.302;2023-07-13T12:27:50;26.60;61.10
43999;DHT22;51319;52.162;5.302;2023-07-13T12:30:31;26.20;61.50
43999;DHT22;51319;52.162;5.302;2023-07-13T12:33:12;26.60;62.30
43999;DHT22;51319;52.162;5.302;2023-07-13T12:35:51;27.10;58.10
43999;DHT22;51319;52.162;5.302;2023-07-13T12:38:24;27.10;58.00
43999;DHT22;51319;52.162;5.302;2023-07-13T12:40:52;27.30;59.10
43999;DHT22;51319;52.162;5.302;2023-07-13T12:43:22;28.30;57.80
43999;DHT22;51319;52.162;5.302;2023-07-13T12:46:01;29.40;55.90
43999;DHT22;51319;52.162;5.302;2023-07-13T12:48:29;30.60;53.50
43999;DHT22;51319;52.162;5.302;2023-07-13T12:51:13;31.10;50.40
43999;DHT22;51319;52.162;5.302;2023-07-13T12:53:55;31.70;49.80
43999;DHT22;51319;52.162;5.302;2023-07-13T12:56:25;31.80;49.00
43999;DHT22;51319;52.162;5.302;2023-07-13T12:59:01;31.70;49.60
43999;DHT22;51319;52.162;5.302;2023-07-13T13:01:31;31.80;47.80
43999;DHT22;51319;52.162;5.302;2023-07-13T13:04:01;30.80;48.20
43999;DHT22;51319;52.162;5.302;2023-07-13T13:06:31;30.80;47.90
43999;DHT22;51319;52.162;5.302;2023-07-13T13:08:59;30.60;48.00
43999;DHT22;51319;52.162;5.302;2023-07-13T13:11:28;29.90;49.80
43999;DHT22;51319;52.162;5.302;2023-07-13T13:13:55;29.40;50.60
43999;DHT22;51319;52.162;5.302;2023-07-13T13:16:33;28.60;50.10
43999;DHT22;51319;52.162;5.302;2023-07-13T13:19:20;27.90;50.70
43999;DHT22;51319;52.162;5.302;2023-07-13T13:21:51;27.30;51.90
43999;DHT22;51319;52.162;5.302;2023-07-13T13:24:22;26.80;53.50
43999;DHT22;51319;52.162;5.302;2023-07-13T13:26:51;26.40;54.40
43999;DHT22;51319;52.162;5.302;2023-07-13T13:29:21;26.50;56.20
43999;DHT22;51319;52.162;5.302;2023-07-13T13:31:51;26.70;55.30
43999;DHT22;51319;52.162;5.302;2023-07-13T13:34:20;26.70;54.90
43999;DHT22;51319;52.162;5.302;2023-07-13T13:36:50;27.10;56.30
43999;DHT22;51319;52.162;5.302;2023-07-13T13:41:51;27.30;55.80
43999;DHT22;51319;52.162;5.302;2023-07-13T13:44:19;27.70;55.60
43999;DHT22;51319;52.162;5.302;2023-07-13T13:46:50;28.20;55.80
43999;DHT22;51319;52.162;5.302;2023-07-13T13:49:19;28.40;54.20
43999;DHT22;51319;52.162;5.302;2023-07-13T13:51:48;28.60;54.30
43999;DHT22;51319;52.162;5.302;2023-07-13T13:54:16;28.40;51.90
43999;DHT22;51319;52.162;5.302;2023-07-13T13:56:46;28.00;52.00
43999;DHT22;51319;52.162;5.302;2023-07-13T13:59:13;27.70;52.20
43999;DHT22;51319;52.162;5.302;2023-07-13T14:01:43;27.60;52.00
43999;DHT22;51319;52.162;5.302;2023-07-13T14:04:22;27.60;52.60
43999;DHT22;51319;52.162;5.302;2023-07-13T14:06:49;27.70;52.60
43999;DHT22;51319;52.162;5.302;2023-07-13T14:09:18;27.80;52.40
43999;DHT22;51319;52.162;5.302;2023-07-13T14:11:47;27.80;52.30
43999;DHT22;51319;52.162;5.302;2023-07-13T14:14:22;27.80;52.00
43999;DHT22;51319;52.162;5.302;2023-07-13T14:16:51;27.70;53.60
43999;DHT22;51319;52.162;5.302;2023-07-13T14:19:21;27.50;53.10
43999;DHT22;51319;52.162;5.302;2023-07-13T14:21:48;27.50;53.00
43999;DHT22;51319;52.162;5.302;2023-07-13T14:24:16;27.50;53.50
43999;DHT22;51319;52.162;5.302;2023-07-13T14:26:46;27.50;53.10
43999;DHT22;51319;52.162;5.302;2023-07-13T14:29:15;27.40;53.00
43999;DHT22;51319;52.162;5.302;2023-07-13T14:31:49;27.20;53.20
43999;DHT22;51319;52.162;5.302;2023-07-13T14:34:17;27.00;52.50
43999;DHT22;51319;52.162;5.302;2023-07-13T14:36:47;26.90;52.70
43999;DHT22;51319;52.162;5.302;2023-07-13T14:39:21;27.00;53.60
43999;DHT22;51319;52.162;5.302;2023-07-13T14:41:54;27.00;53.80
43999;DHT22;51319;52.162;5.302;2023-07-13T14:44:25;27.10;53.70
43999;DHT22;51319;52.162;5.302;2023-07-13T14:46:52;27.10;53.90
43999;DHT22;51319;52.162;5.302;2023-07-13T14:49:30;27.20;53.80
43999;DHT22;51319;52.162;5.302;2023-07-13T14:52:10;27.30;53.30
43999;DHT22;51319;52.162;5.302;2023-07-13T14:54:38;27.10;53.40
43999;DHT22;51319;52.162;5.302;2023-07-13T14:57:12;27.00;53.30
43999;DHT22;51319;52.162;5.302;2023-07-13T14:59:39;26.70;53.80
43999;DHT22;51319;52.162;5.302;2023-07-13T15:02:13;26.30;54.40
43999;DHT22;51319;52.162;5.302;2023-07-13T15:04:41;25.90;54.70
43999;DHT22;51319;52.162;5.302;2023-07-13T15:09:41;25.70;55.40
43999;DHT22;51319;52.162;5.302;2023-07-13T15:12:09;25.90;55.90
43999;DHT22;51319;52.162;5.302;2023-07-13T15:14:36;25.90;55.20
43999;DHT22;51319;52.162;5.302;2023-07-13T15:17:03;25.90;54.50
43999;DHT22;51319;52.162;5.302;2023-07-13T15:19:31;25.80;54.60
43999;DHT22;51319;52.162;5.302;2023-07-13T15:21:58;25.90;55.40
43999;DHT22;51319;52.162;5.302;2023-07-13T15:24:26;26.00;54.80
43999;DHT22;51319;52.162;5.302;2023-07-13T15:26:53;26.00;54.80
43999;DHT22;51319;52.162;5.302;2023-07-13T15:29:20;26.10;54.80
43999;DHT22;51319;52.162;5.302;2023-07-13T15:31:47;26.10;54.80
43999;DHT22;51319;52.162;5.302;2023-07-13T15:34:16;26.00;53.40
43999;DHT22;51319;52.162;5.302;2023-07-13T15:36:45;25.90;53.90
43999;DHT22;51319;52.162;5.302;2023-07-13T15:39:16;25.90;53.80
43999;DHT22;51319;52.162;5.302;2023-07-13T15:41:45;25.70;53.70
43999;DHT22;51319;52.162;5.302;2023-07-13T15:44:29;25.60;54.50
43999;DHT22;51319;52.162;5.302;2023-07-13T15:46:57;25.50;54.70
43999;DHT22;51319;52.162;5.302;2023-07-13T15:49:27;25.40;54.90
43999;DHT22;51319;52.162;5.302;2023-07-13T15:51:55;25.30;54.50
43999;DHT22;51319;52.162;5.302;2023-07-13T15:54:23;25.10;55.00
43999;DHT22;51319;52.162;5.302;2023-07-13T15:56:53;25.00;55.80
43999;DHT22;51319;52.162;5.302;2023-07-13T15:59:22;24.90;57.00
43999;DHT22;51319;52.162;5.302;2023-07-13T16:01:50;24.80;55.60
43999;DHT22;51319;52.162;5.302;2023-07-13T16:04:17;24.70;55.90
43999;DHT22;51319;52.162;5.302;2023-07-13T16:06:46;24.70;55.70
43999;DHT22;51319;52.162;5.302;2023-07-13T16:09:22;24.70;55.90
43999;DHT22;51319;52.162;5.302;2023-07-13T16:11:50;24.60;56.40
43999;DHT22;51319;52.162;5.302;2023-07-13T16:14:18;24.50;56.40
43999;DHT22;51319;52.162;5.302;2023-07-13T16:16:48;24.40;56.50
43999;DHT22;51319;52.162;5.302;2023-07-13T16:19:30;24.30;56.90
43999;DHT22;51319;52.162;5.302;2023-07-13T16:21:58;24.40;57.30